createdAt,value
2023-04-29T00:00:14.160Z,56.99
2023-04-29T00:02:41.766Z,57.74
2023-04-29T00:05:09.233Z,52.61
2023-04-29T00:07:36.668Z,51.01
2023-04-29T00:10:03.808Z,53.95
2023-04-29T00:12:32.045Z,51.75
2023-04-29T00:15:00.787Z,49.22
2023-04-29T00:17:28.020Z,52.92
2023-04-29T00:19:54.919Z,51.33
2023-04-29T00:22:22.754Z,56.60
2023-04-29T00:24:49.487Z,51.05
2023-04-29T00:27:17.857Z,52.03
2023-04-29T00:29:45.153Z,53.00
2023-04-29T00:32:12.253Z,49.56
2023-04-29T00:34:39.076Z,55.49
2023-04-29T00:37:05.862Z,51.52
2023-04-29T00:39:32.816Z,52.83
2023-04-29T00:41:59.984Z,57.03
2023-04-29T00:44:27.001Z,52.32
2023-04-29T00:46:54.346Z,55.84
2023-04-29T00:49:21.272Z,54.10
2023-04-29T00:51:48.472Z,51.13
2023-04-29T00:54:15.987Z,48.83
2023-04-29T00:56:45.703Z,51.82
2023-04-29T00:59:13.197Z,51.49
2023-04-29T01:01:40.018Z,53.34
2023-04-29T01:04:08.270Z,50.68
2023-04-29T01:06:53.292Z,54.81
2023-04-29T01:09:41.580Z,52.00
2023-04-29T01:12:32.923Z,53.70
2023-04-29T01:15:12.699Z,49.33
2023-04-29T01:17:52.475Z,47.92
2023-04-29T01:20:21.136Z,50.50
2023-04-29T01:22:48.874Z,50.07
2023-04-29T01:25:16.431Z,52.28
2023-04-29T01:28:07.734Z,50.37
2023-04-29T01:30:46.650Z,50.15
2023-04-29T01:33:30.864Z,50.80
2023-04-29T01:36:14.231Z,54.98
2023-04-29T01:38:52.920Z,51.42
2023-04-29T01:41:24.793Z,50.24
2023-04-29T01:43:58.850Z,55.85
2023-04-29T01:46:27.925Z,54.54
2023-04-29T01:48:57.752Z,52.44
2023-04-29T01:51:24.664Z,55.13
2023-04-29T01:53:51.675Z,50.24
2023-04-29T01:56:18.772Z,51.25
2023-04-29T01:59:05.765Z,46.41
2023-04-29T02:02:05.561Z,52.10
2023-04-29T02:04:34.754Z,50.18
2023-04-29T02:07:04.054Z,50.53
2023-04-29T02:09:31.234Z,48.12
2023-04-29T02:12:06.601Z,46.91
2023-04-29T02:14:36.787Z,47.64
2023-04-29T02:17:05.144Z,47.73
2023-04-29T02:19:32.131Z,47.97
2023-04-29T02:21:59.231Z,54.48
2023-04-29T02:24:26.360Z,51.48
2023-04-29T02:26:53.534Z,51.02
2023-04-29T02:29:20.844Z,50.07
2023-04-29T02:31:48.596Z,54.79
2023-04-29T02:34:16.311Z,48.89
2023-04-29T02:36:43.172Z,51.52
2023-04-29T02:39:09.983Z,53.00
2023-04-29T02:41:36.937Z,52.34
2023-04-29T02:44:04.134Z,51.01
2023-04-29T02:46:33.511Z,57.02
2023-04-29T02:49:01.005Z,55.36
2023-04-29T02:51:28.339Z,55.14
2023-04-29T02:53:55.490Z,50.75
2023-04-29T02:56:23.378Z,59.43
2023-04-29T02:58:50.454Z,53.94
2023-04-29T03:01:17.281Z,52.16
2023-04-29T03:03:44.741Z,53.45
2023-04-29T03:06:11.965Z,52.23
2023-04-29T03:08:38.700Z,53.89
2023-04-29T03:11:05.768Z,55.16
2023-04-29T03:13:32.666Z,52.41
2023-04-29T03:16:00.671Z,50.95
2023-04-29T03:18:28.459Z,50.88
2023-04-29T03:20:55.359Z,50.21
2023-04-29T03:23:22.517Z,51.66
2023-04-29T03:25:50.038Z,54.27
2023-04-29T03:28:16.791Z,52.57
2023-04-29T03:30:43.632Z,58.09
2023-04-29T03:33:10.530Z,52.57
2023-04-29T03:35:37.480Z,54.29
2023-04-29T03:38:22.848Z,52.16
2023-04-29T03:40:49.728Z,59.06
2023-04-29T03:43:17.802Z,60.03
2023-04-29T03:45:44.898Z,55.16
2023-04-29T03:48:16.949Z,51.20
2023-04-29T03:50:44.181Z,54.08
2023-04-29T03:53:12.099Z,54.46
2023-04-29T03:55:39.119Z,55.51
2023-04-29T03:58:06.285Z,58.27
2023-04-29T04:00:33.963Z,56.08
2023-04-29T04:03:05.862Z,53.90
2023-04-29T04:05:35.002Z,52.94
2023-04-29T04:08:07.792Z,51.87
2023-04-29T04:10:50.044Z,57.98
2023-04-29T04:13:30.350Z,58.52
2023-04-29T04:15:57.602Z,53.65
2023-04-29T04:18:24.666Z,52.55
2023-04-29T04:20:51.721Z,50.00
2023-04-29T04:23:18.472Z,52.12
2023-04-29T04:25:49.090Z,52.97
2023-04-29T04:28:35.948Z,57.63
2023-04-29T04:31:09.662Z,51.11
2023-04-29T04:33:36.602Z,52.99
2023-04-29T04:36:03.376Z,54.46
2023-04-29T04:38:30.465Z,54.91
2023-04-29T04:40:57.324Z,56.40
2023-04-29T04:43:35.704Z,53.35
2023-04-29T04:46:14.422Z,50.10
2023-04-29T04:49:01.634Z,58.73
2023-04-29T04:51:29.543Z,54.68
2023-04-29T04:53:56.336Z,57.19
2023-04-29T04:56:24.778Z,54.88
2023-04-29T04:58:51.791Z,52.15
2023-04-29T05:01:18.686Z,55.25
2023-04-29T05:03:46.016Z,55.17
2023-04-29T05:06:13.002Z,59.31
2023-04-29T05:08:42.474Z,53.81
2023-04-29T05:11:20.619Z,55.18
2023-04-29T05:14:01.218Z,58.19
2023-04-29T05:16:28.034Z,60.77
2023-04-29T05:18:54.956Z,54.21
2023-04-29T05:21:24.970Z,58.23
2023-04-29T05:23:52.069Z,54.27
2023-04-29T05:26:18.893Z,51.96
2023-04-29T05:28:46.134Z,53.21
2023-04-29T05:31:13.927Z,53.06
2023-04-29T05:33:40.877Z,51.76
2023-04-29T05:36:08.359Z,51.94
2023-04-29T05:38:35.251Z,51.80
2023-04-29T05:41:08.523Z,52.86
2023-04-29T05:43:47.118Z,50.91
2023-04-29T05:46:15.244Z,52.86
2023-04-29T05:48:42.142Z,50.43
2023-04-29T05:51:10.614Z,51.81
2023-04-29T05:53:39.777Z,52.57
2023-04-29T05:56:08.802Z,51.21
2023-04-29T05:58:37.177Z,55.55
2023-04-29T06:01:04.388Z,51.49
2023-04-29T06:03:31.799Z,49.22
2023-04-29T06:06:17.920Z,51.94
2023-04-29T06:09:08.600Z,51.65
2023-04-29T06:11:41.637Z,49.32
2023-04-29T06:14:08.323Z,48.28
2023-04-29T06:16:35.673Z,47.99
2023-04-29T06:19:02.917Z,49.26
2023-04-29T06:21:29.586Z,48.66
2023-04-29T06:23:56.707Z,51.73
2023-04-29T06:26:24.016Z,49.96
2023-04-29T06:28:50.953Z,53.19
2023-04-29T06:31:18.174Z,52.52
2023-04-29T06:33:45.361Z,48.86
2023-04-29T06:36:12.376Z,53.33
2023-04-29T06:38:41.869Z,52.84
2023-04-29T06:41:27.470Z,50.21
2023-04-29T06:44:12.883Z,49.72
2023-04-29T06:46:39.668Z,51.48
2023-04-29T06:49:25.254Z,52.48
2023-04-29T06:51:52.034Z,48.88
2023-04-29T06:54:18.728Z,51.95
2023-04-29T06:56:45.608Z,51.96
2023-04-29T06:59:12.813Z,50.79
2023-04-29T07:01:43.449Z,52.55
2023-04-29T07:04:12.135Z,52.79
2023-04-29T07:06:39.465Z,48.27
2023-04-29T07:09:06.830Z,47.04
2023-04-29T07:11:33.524Z,48.67
2023-04-29T07:14:00.231Z,48.33
2023-04-29T07:16:30.184Z,47.12
2023-04-29T07:18:57.228Z,48.72
2023-04-29T07:21:24.519Z,50.10
2023-04-29T07:23:51.342Z,45.99
2023-04-29T07:26:18.850Z,50.26
2023-04-29T07:28:46.302Z,48.55
2023-04-29T07:31:14.396Z,47.10
2023-04-29T07:33:41.388Z,50.01
2023-04-29T07:36:11.090Z,46.19
2023-04-29T07:38:38.038Z,45.69
2023-04-29T07:41:04.887Z,45.02
2023-04-29T07:43:32.171Z,45.36
2023-04-29T07:45:59.545Z,46.25
2023-04-29T07:48:26.404Z,46.68
2023-04-29T07:50:55.057Z,44.78
2023-04-29T07:53:21.980Z,44.80
2023-04-29T07:55:50.881Z,41.60
2023-04-29T07:58:19.103Z,39.67
2023-04-29T08:00:47.408Z,45.19
2023-04-29T08:03:14.595Z,41.19
2023-04-29T08:05:42.823Z,41.61
2023-04-29T08:08:13.786Z,43.46
2023-04-29T08:10:41.315Z,40.24
2023-04-29T08:13:09.293Z,43.73
2023-04-29T08:15:36.028Z,41.09
2023-04-29T08:18:02.892Z,43.60
2023-04-29T08:20:29.775Z,39.79
2023-04-29T08:22:59.643Z,40.82
2023-04-29T08:25:27.299Z,38.11
2023-04-29T08:27:54.036Z,39.31
2023-04-29T08:30:21.022Z,40.51
2023-04-29T08:32:48.136Z,38.97
2023-04-29T08:35:15.272Z,38.85
2023-04-29T08:37:42.045Z,40.28
2023-04-29T08:40:09.510Z,41.51
2023-04-29T08:42:37.736Z,39.40
2023-04-29T08:45:05.055Z,38.79
2023-04-29T08:47:33.407Z,34.58
2023-04-29T08:50:06.838Z,35.20
2023-04-29T08:52:34.318Z,38.01
2023-04-29T08:55:05.555Z,38.46
2023-04-29T08:57:40.001Z,36.89
2023-04-29T09:00:12.081Z,34.42
2023-04-29T09:02:51.498Z,33.50
2023-04-29T09:05:19.049Z,33.61
2023-04-29T09:07:47.000Z,32.99
2023-04-29T09:10:16.099Z,34.37
2023-04-29T09:12:42.848Z,35.85
2023-04-29T09:15:10.085Z,34.93
2023-04-29T09:17:44.642Z,36.36
2023-04-29T09:20:20.850Z,37.00
2023-04-29T09:22:52.241Z,38.46
2023-04-29T09:25:19.400Z,38.43
2023-04-29T09:27:46.368Z,38.90
2023-04-29T09:30:13.934Z,35.22
2023-04-29T09:32:41.141Z,31.37
2023-04-29T09:35:25.620Z,33.27
2023-04-29T09:37:56.333Z,29.57
2023-04-29T09:40:40.457Z,29.62
2023-04-29T09:43:15.890Z,30.35
2023-04-29T09:45:47.704Z,27.91
2023-04-29T09:48:15.916Z,33.25
2023-04-29T09:50:45.014Z,35.35
2023-04-29T09:53:28.038Z,34.55
2023-04-29T09:56:01.688Z,30.52
2023-04-29T09:58:37.481Z,35.39
2023-04-29T10:01:05.493Z,36.20
2023-04-29T10:03:38.642Z,35.60
2023-04-29T10:06:07.360Z,36.08
2023-04-29T10:08:35.265Z,36.13
2023-04-29T10:11:05.941Z,41.26
2023-04-29T10:13:38.689Z,41.79
2023-04-29T10:16:20.292Z,42.78
2023-04-29T10:18:55.786Z,43.29
2023-04-29T10:21:33.139Z,41.61
2023-04-29T10:24:02.572Z,40.12
2023-04-29T10:26:29.960Z,39.40
2023-04-29T10:28:57.729Z,28.27
2023-04-29T10:31:28.736Z,30.29
2023-04-29T10:33:59.195Z,31.72
2023-04-29T10:36:28.597Z,29.84
2023-04-29T10:38:59.680Z,31.31
2023-04-29T10:41:44.851Z,25.93
2023-04-29T10:44:11.818Z,28.11
2023-04-29T10:46:39.087Z,27.20
2023-04-29T10:49:07.195Z,30.54
2023-04-29T10:51:42.024Z,30.15
2023-04-29T10:54:12.872Z,30.06
2023-04-29T10:56:42.932Z,26.60
2023-04-29T10:59:17.765Z,27.34
2023-04-29T11:01:49.331Z,25.63
2023-04-29T11:04:16.932Z,24.85
2023-04-29T11:06:54.829Z,24.11
2023-04-29T11:09:24.499Z,27.51
2023-04-29T11:12:03.462Z,31.02
2023-04-29T11:14:36.557Z,30.18
2023-04-29T11:17:07.870Z,25.29
2023-04-29T11:19:36.852Z,24.98
2023-04-29T11:22:09.261Z,25.40
2023-04-29T11:24:39.222Z,30.08
2023-04-29T11:27:06.055Z,33.03
2023-04-29T11:29:33.457Z,33.25
2023-04-29T11:32:02.213Z,35.13
2023-04-29T11:34:29.067Z,36.36
2023-04-29T11:36:55.986Z,36.08
2023-04-29T11:39:23.464Z,30.17
2023-04-29T11:41:52.688Z,31.28
2023-04-29T11:44:25.422Z,28.75
2023-04-29T11:46:52.285Z,34.68
2023-04-29T11:49:20.565Z,35.64
2023-04-29T11:51:47.312Z,31.43
2023-04-29T11:54:14.504Z,29.34
2023-04-29T11:56:41.908Z,27.10
2023-04-29T11:59:09.226Z,31.12
2023-04-29T12:01:36.604Z,37.52
2023-04-29T12:04:06.241Z,41.27
2023-04-29T12:06:33.507Z,35.62
2023-04-29T12:09:01.237Z,37.62
2023-04-29T12:11:29.079Z,31.12
2023-04-29T12:13:57.984Z,31.86
2023-04-29T12:16:26.038Z,35.89
2023-04-29T12:18:53.764Z,31.44
2023-04-29T12:21:22.429Z,31.97
2023-04-29T12:23:49.190Z,32.53
2023-04-29T12:26:17.436Z,32.51
2023-04-29T12:28:44.210Z,31.70
2023-04-29T12:31:14.116Z,34.21
2023-04-29T12:33:46.394Z,29.96
2023-04-29T12:36:21.586Z,31.51
2023-04-29T12:38:49.316Z,27.64
2023-04-29T12:41:17.435Z,31.85
2023-04-29T12:43:44.716Z,35.35
2023-04-29T12:46:14.868Z,36.52
2023-04-29T12:48:44.021Z,34.34
2023-04-29T12:51:11.756Z,33.99
2023-04-29T12:53:39.230Z,32.41
2023-04-29T12:56:06.756Z,30.73
2023-04-29T12:58:36.936Z,31.57
2023-04-29T13:01:03.756Z,29.90
2023-04-29T13:03:30.820Z,32.50
2023-04-29T13:05:58.148Z,31.15
2023-04-29T13:08:25.281Z,33.98
2023-04-29T13:10:52.056Z,33.50
2023-04-29T13:13:18.808Z,32.49
2023-04-29T13:15:46.331Z,34.18
2023-04-29T13:18:13.227Z,36.33
2023-04-29T13:20:42.084Z,33.92
2023-04-29T13:23:10.361Z,34.98
2023-04-29T13:25:37.152Z,34.17
2023-04-29T13:28:07.790Z,33.13
2023-04-29T13:30:34.816Z,31.26
2023-04-29T13:33:09.861Z,29.44
2023-04-29T13:35:40.520Z,30.41
2023-04-29T13:38:08.165Z,28.72
2023-04-29T13:40:39.348Z,30.16
2023-04-29T13:43:13.825Z,28.05
2023-04-29T13:45:45.656Z,30.13
2023-04-29T13:48:32.468Z,30.05
2023-04-29T13:56:53.320Z,33.97
2023-04-29T14:01:55.310Z,31.94
2023-04-29T14:04:05.358Z,29.59
2023-04-29T14:06:32.631Z,31.99
2023-04-29T14:09:01.098Z,31.93
2023-04-29T14:11:28.992Z,34.98
2023-04-29T14:13:56.218Z,33.48
2023-04-29T14:16:23.094Z,35.95
2023-04-29T14:18:49.992Z,33.31
2023-04-29T14:21:16.933Z,30.63
2023-04-29T14:23:43.904Z,30.38
2023-04-29T14:26:27.042Z,29.20
2023-04-29T14:29:00.246Z,31.68
2023-04-29T14:31:29.312Z,31.01
2023-04-29T14:33:59.748Z,32.55
2023-04-29T14:36:27.135Z,32.02
2023-04-29T14:38:54.141Z,29.61
2023-04-29T14:41:22.088Z,31.40
2023-04-29T14:43:48.946Z,34.50
2023-04-29T14:46:16.748Z,31.41
2023-04-29T14:48:44.116Z,31.28
2023-04-29T14:51:11.901Z,29.85
2023-04-29T14:53:39.142Z,29.83
2023-04-29T14:56:07.344Z,29.09
2023-04-29T14:58:34.081Z,32.16
2023-04-29T15:01:00.829Z,31.78
2023-04-29T15:03:27.840Z,31.64
2023-04-29T15:05:55.124Z,33.03
2023-04-29T15:08:22.069Z,32.18
2023-04-29T15:10:50.163Z,30.56
2023-04-29T15:13:17.085Z,32.21
2023-04-29T15:15:43.869Z,35.02
2023-04-29T15:18:10.956Z,34.27
2023-04-29T15:20:38.216Z,34.54
2023-04-29T15:23:05.777Z,34.41
2023-04-29T15:25:36.247Z,36.47
2023-04-29T15:28:03.986Z,37.72
2023-04-29T15:30:30.997Z,35.54
2023-04-29T15:32:58.028Z,35.38
2023-04-29T15:35:24.836Z,35.36
2023-04-29T15:37:51.805Z,33.01
2023-04-29T15:40:18.561Z,33.48
2023-04-29T15:42:45.814Z,32.68
2023-04-29T15:45:13.047Z,36.55
2023-04-29T15:47:39.843Z,34.67
2023-04-29T15:50:07.999Z,34.01
2023-04-29T15:52:34.758Z,33.91
2023-04-29T15:55:01.447Z,37.00
2023-04-29T15:57:28.219Z,36.48
2023-04-29T15:59:55.235Z,35.88
2023-04-29T16:02:22.303Z,35.25
2023-04-29T16:04:49.318Z,38.03
2023-04-29T16:07:17.354Z,35.83
2023-04-29T16:09:44.495Z,35.33
2023-04-29T16:12:13.118Z,33.37
2023-04-29T16:14:39.959Z,33.57
2023-04-29T16:17:07.185Z,32.38
2023-04-29T16:19:36.841Z,32.23
2023-04-29T16:22:04.516Z,36.56
2023-04-29T16:24:31.326Z,36.64
2023-04-29T16:26:59.377Z,38.70
2023-04-29T16:29:26.549Z,36.42
2023-04-29T16:31:53.689Z,38.96
2023-04-29T16:34:20.599Z,37.21
2023-04-29T16:36:47.621Z,37.37
2023-04-29T16:39:14.419Z,38.96
2023-04-29T16:41:41.453Z,37.65
2023-04-29T16:44:09.012Z,36.97
2023-04-29T16:46:36.427Z,38.19
2023-04-29T16:49:03.379Z,38.07
2023-04-29T16:51:30.382Z,37.48
2023-04-29T16:53:57.441Z,35.96
2023-04-29T16:56:24.242Z,34.62
2023-04-29T16:58:51.549Z,34.78
2023-04-29T17:01:19.730Z,35.63
2023-04-29T17:03:47.943Z,35.07
2023-04-29T17:06:16.068Z,34.13
2023-04-29T17:08:44.269Z,36.91
2023-04-29T17:11:11.251Z,38.50
2023-04-29T17:13:38.135Z,37.22
2023-04-29T17:16:05.638Z,38.72
2023-04-29T17:18:32.383Z,37.49
2023-04-29T17:20:59.605Z,38.55
2023-04-29T17:23:26.313Z,38.84
2023-04-29T17:25:54.707Z,40.66
2023-04-29T17:28:21.776Z,40.18
2023-04-29T17:30:48.586Z,38.47
2023-04-29T17:33:17.470Z,39.65
2023-04-29T17:35:45.654Z,39.82
2023-04-29T17:38:12.480Z,39.96
2023-04-29T17:40:39.755Z,41.97
2023-04-29T17:43:06.732Z,39.56
2023-04-29T17:45:33.687Z,40.36
2023-04-29T17:48:00.953Z,41.16
2023-04-29T17:50:28.003Z,40.69
2023-04-29T17:52:54.742Z,40.98
2023-04-29T17:55:21.759Z,39.88
2023-04-29T17:57:48.885Z,40.19
2023-04-29T18:00:16.163Z,41.25
2023-04-29T18:02:43.296Z,40.26
2023-04-29T18:05:10.301Z,40.42
2023-04-29T18:07:37.394Z,41.08
2023-04-29T18:10:05.916Z,39.41
2023-04-29T18:12:32.605Z,39.82
2023-04-29T18:15:01.306Z,39.83
2023-04-29T18:17:28.471Z,40.43
2023-04-29T18:19:55.535Z,40.49
2023-04-29T18:22:22.460Z,39.68
2023-04-29T18:24:49.761Z,38.29
2023-04-29T18:27:17.510Z,41.53
2023-04-29T18:29:47.645Z,39.41
2023-04-29T18:32:14.770Z,39.91
2023-04-29T18:34:41.508Z,39.75
2023-04-29T18:37:08.747Z,40.47
2023-04-29T18:39:35.553Z,40.31
2023-04-29T18:42:04.590Z,39.83
2023-04-29T18:44:31.629Z,40.41
2023-04-29T18:46:58.886Z,41.78
2023-04-29T18:49:25.680Z,40.26
2023-04-29T18:51:52.675Z,41.89
2023-04-29T18:54:19.961Z,42.67
2023-04-29T18:56:48.659Z,42.94
2023-04-29T18:59:19.711Z,42.19
2023-04-29T19:01:48.220Z,44.45
2023-04-29T19:04:15.704Z,42.89
2023-04-29T19:06:42.963Z,42.05
2023-04-29T19:09:11.368Z,42.38
2023-04-29T19:11:38.153Z,41.44
2023-04-29T19:14:04.903Z,42.82
2023-04-29T19:16:32.146Z,41.63
2023-04-29T19:18:59.971Z,42.66
2023-04-29T19:21:27.201Z,41.45
2023-04-29T19:23:54.225Z,41.84
2023-04-29T19:26:21.063Z,42.61
2023-04-29T19:28:48.393Z,42.40
2023-04-29T19:31:15.563Z,42.75
2023-04-29T19:33:43.045Z,43.41
2023-04-29T19:36:12.786Z,42.57
2023-04-29T19:38:39.574Z,43.28
2023-04-29T19:41:06.298Z,43.01
2023-04-29T19:43:33.736Z,44.93
2023-04-29T19:46:00.609Z,45.23
2023-04-29T19:48:27.332Z,43.80
2023-04-29T19:50:54.393Z,41.39
2023-04-29T19:53:21.384Z,41.29
2023-04-29T19:55:50.591Z,42.04
2023-04-29T19:58:18.762Z,44.62
2023-04-29T20:00:45.897Z,42.33
2023-04-29T20:03:12.894Z,41.04
2023-04-29T20:05:41.324Z,44.16
2023-04-29T20:08:08.229Z,43.22
2023-04-29T20:10:35.051Z,42.30
2023-04-29T20:13:02.481Z,43.19
2023-04-29T20:15:29.630Z,43.94
2023-04-29T20:17:56.480Z,41.59
2023-04-29T20:20:24.701Z,42.54
2023-04-29T20:22:51.728Z,41.69
2023-04-29T20:25:19.108Z,40.67
2023-04-29T20:27:46.121Z,40.36
2023-04-29T20:30:12.957Z,40.61
2023-04-29T20:32:40.300Z,41.80
2023-04-29T20:35:08.263Z,41.39
2023-04-29T20:37:35.626Z,43.09
2023-04-29T20:40:02.838Z,41.42
2023-04-29T20:42:29.722Z,41.31
2023-04-29T20:44:56.818Z,41.54
2023-04-29T20:47:24.096Z,41.59
2023-04-29T20:49:50.954Z,40.88
2023-04-29T20:52:17.950Z,41.98
2023-04-29T20:54:45.134Z,41.27
2023-04-29T20:57:11.868Z,41.21
2023-04-29T20:59:39.115Z,41.76
2023-04-29T21:02:05.801Z,41.94
2023-04-29T21:04:33.027Z,42.44
2023-04-29T21:07:03.399Z,40.43
2023-04-29T21:09:30.272Z,40.84
2023-04-29T21:11:59.424Z,41.54
2023-04-29T21:14:27.358Z,41.46
2023-04-29T21:16:54.746Z,41.04
2023-04-29T21:19:21.682Z,40.33
2023-04-29T21:21:48.407Z,40.72
2023-04-29T21:24:15.484Z,41.70
2023-04-29T21:26:42.794Z,42.45
2023-04-29T21:29:09.804Z,42.62
2023-04-29T21:31:36.629Z,42.15
2023-04-29T21:34:03.496Z,43.18
2023-04-29T21:36:32.090Z,42.50
2023-04-29T21:38:58.886Z,42.21
2023-04-29T21:41:28.325Z,41.24
2023-04-29T21:43:58.417Z,41.26
2023-04-29T21:46:27.704Z,41.98
2023-04-29T21:48:57.464Z,41.88
2023-04-29T21:51:24.601Z,42.48
2023-04-29T21:53:51.478Z,41.70
2023-04-29T21:56:18.727Z,41.45
2023-04-29T21:58:45.913Z,41.72
2023-04-29T22:01:48.701Z,42.10
2023-04-29T22:04:19.580Z,41.98
2023-04-29T22:06:46.432Z,41.74
2023-04-29T22:09:13.323Z,41.06
2023-04-29T22:11:40.054Z,40.68
2023-04-29T22:14:06.832Z,40.09
2023-04-29T22:16:35.889Z,44.30
2023-04-29T22:19:03.638Z,43.20
2023-04-29T22:21:31.983Z,40.60
2023-04-29T22:23:59.028Z,40.60
2023-04-29T22:26:26.016Z,41.31
2023-04-29T22:28:53.017Z,41.59
2023-04-29T22:31:20.441Z,41.29
2023-04-29T22:33:47.596Z,41.25
2023-04-29T22:36:14.325Z,41.51
2023-04-29T22:38:41.614Z,41.45
2023-04-29T22:41:09.962Z,42.81
2023-04-29T22:43:36.656Z,42.61
2023-04-29T22:46:04.114Z,42.30
2023-04-29T22:48:31.290Z,42.29
2023-04-29T22:51:04.080Z,42.72
2023-04-29T22:53:30.963Z,43.42
2023-04-29T22:55:59.350Z,43.17
2023-04-29T22:58:26.491Z,41.46
2023-04-29T23:00:56.866Z,42.37
2023-04-29T23:03:24.475Z,40.54
2023-04-29T23:05:51.546Z,41.28
2023-04-29T23:08:18.289Z,42.55
2023-04-29T23:10:51.637Z,41.87
2023-04-29T23:13:19.123Z,41.28
2023-04-29T23:15:46.286Z,39.64
2023-04-29T23:18:13.304Z,45.21
2023-04-29T23:20:40.331Z,43.59
2023-04-29T23:23:07.121Z,43.58
2023-04-29T23:25:34.603Z,43.41
2023-04-29T23:28:01.552Z,43.69
2023-04-29T23:30:28.218Z,43.42
2023-04-29T23:32:55.029Z,42.96
2023-04-29T23:35:22.055Z,42.69
2023-04-29T23:37:48.812Z,42.28
2023-04-29T23:40:16.325Z,41.93
2023-04-29T23:42:43.190Z,41.38
2023-04-29T23:45:10.350Z,42.73
2023-04-29T23:47:37.288Z,41.69
2023-04-29T23:50:04.790Z,42.22
2023-04-29T23:52:31.744Z,42.46
2023-04-29T23:54:58.506Z,42.75
2023-04-29T23:57:25.244Z,43.26
2023-04-29T23:59:55.313Z,42.59
